sensor_id;sensor_type;location;lat;lon;timestamp;P1;durP1;ratioP1;P2;durP2;ratioP2
44476;SDS011;30180;44.788;10.366;2023-09-19T00:00:38;6.70;;;2.72;;
44476;SDS011;30180;44.788;10.366;2023-09-19T00:03:08;6.20;;;2.45;;
44476;SDS011;30180;44.788;10.366;2023-09-19T00:05:39;5.57;;;2.72;;
44476;SDS011;30180;44.788;10.366;2023-09-19T00:08:12;6.28;;;2.28;;
44476;SDS011;30180;44.788;10.366;2023-09-19T00:10:42;7.03;;;2.65;;
44476;SDS011;30180;44.788;10.366;2023-09-19T00:13:11;5.18;;;2.40;;
44476;SDS011;30180;44.788;10.366;2023-09-19T00:15:42;6.28;;;2.40;;
44476;SDS011;30180;44.788;10.366;2023-09-19T00:18:16;6.82;;;2.65;;
44476;SDS011;30180;44.788;10.366;2023-09-19T00:20:49;8.75;;;2.88;;
44476;SDS011;30180;44.788;10.366;2023-09-19T00:23:19;4.88;;;2.38;;
44476;SDS011;30180;44.788;10.366;2023-09-19T00:25:49;7.28;;;2.47;;
44476;SDS011;30180;44.788;10.366;2023-09-19T00:28:18;6.70;;;2.63;;
44476;SDS011;30180;44.788;10.366;2023-09-19T00:30:47;4.65;;;2.38;;
44476;SDS011;30180;44.788;10.366;2023-09-19T00:33:18;5.70;;;2.67;;
44476;SDS011;30180;44.788;10.366;2023-09-19T00:35:46;6.32;;;2.78;;
44476;SDS011;30180;44.788;10.366;2023-09-19T00:38:15;5.57;;;2.38;;
44476;SDS011;30180;44.788;10.366;2023-09-19T00:40:46;4.07;;;2.17;;
44476;SDS011;30180;44.788;10.366;2023-09-19T00:43:16;6.63;;;2.85;;
44476;SDS011;30180;44.788;10.366;2023-09-19T00:45:46;6.30;;;2.50;;
44476;SDS011;30180;44.788;10.366;2023-09-19T00:48:16;7.70;;;2.72;;
44476;SDS011;30180;44.788;10.366;2023-09-19T00:50:47;6.90;;;2.90;;
44476;SDS011;30180;44.788;10.366;2023-09-19T00:53:18;7.22;;;2.60;;
44476;SDS011;30180;44.788;10.366;2023-09-19T00:55:49;4.90;;;2.60;;
44476;SDS011;30180;44.788;10.366;2023-09-19T00:58:20;5.75;;;2.88;;
44476;SDS011;30180;44.788;10.366;2023-09-19T01:00:48;5.53;;;2.45;;
44476;SDS011;30180;44.788;10.366;2023-09-19T01:03:17;7.30;;;2.47;;
44476;SDS011;30180;44.788;10.366;2023-09-19T01:05:46;4.40;;;2.13;;
44476;SDS011;30180;44.788;10.366;2023-09-19T01:08:15;5.95;;;2.60;;
44476;SDS011;30180;44.788;10.366;2023-09-19T01:10:46;5.20;;;2.60;;
44476;SDS011;30180;44.788;10.366;2023-09-19T01:13:24;6.20;;;2.65;;
44476;SDS011;30180;44.788;10.366;2023-09-19T01:15:59;4.70;;;2.83;;
44476;SDS011;30180;44.788;10.366;2023-09-19T01:18:40;6.67;;;2.70;;
44476;SDS011;30180;44.788;10.366;2023-09-19T01:21:15;8.65;;;2.72;;
44476;SDS011;30180;44.788;10.366;2023-09-19T01:23:59;5.18;;;2.50;;
44476;SDS011;30180;44.788;10.366;2023-09-19T01:27:02;5.43;;;2.50;;
44476;SDS011;30180;44.788;10.366;2023-09-19T01:29:47;6.78;;;2.40;;
44476;SDS011;30180;44.788;10.366;2023-09-19T01:32:18;6.65;;;2.58;;
44476;SDS011;30180;44.788;10.366;2023-09-19T01:34:53;5.55;;;2.60;;
44476;SDS011;30180;44.788;10.366;2023-09-19T01:37:25;5.70;;;2.88;;
44476;SDS011;30180;44.788;10.366;2023-09-19T01:39:55;6.97;;;2.63;;
44476;SDS011;30180;44.788;10.366;2023-09-19T01:42:35;5.35;;;2.58;;
44476;SDS011;30180;44.788;10.366;2023-09-19T01:45:10;7.88;;;2.72;;
44476;SDS011;30180;44.788;10.366;2023-09-19T01:47:44;7.20;;;2.72;;
44476;SDS011;30180;44.788;10.366;2023-09-19T01:50:17;6.43;;;2.75;;
44476;SDS011;30180;44.788;10.366;2023-09-19T01:52:57;5.03;;;2.42;;
44476;SDS011;30180;44.788;10.366;2023-09-19T01:55:32;6.22;;;2.92;;
44476;SDS011;30180;44.788;10.366;2023-09-19T01:58:12;4.15;;;2.35;;
44476;SDS011;30180;44.788;10.366;2023-09-19T02:00:45;4.38;;;2.78;;
44476;SDS011;30180;44.788;10.366;2023-09-19T02:03:19;5.10;;;2.55;;
44476;SDS011;30180;44.788;10.366;2023-09-19T02:05:50;7.88;;;2.70;;
44476;SDS011;30180;44.788;10.366;2023-09-19T02:08:20;4.43;;;2.58;;
44476;SDS011;30180;44.788;10.366;2023-09-19T02:10:51;6.47;;;2.70;;
44476;SDS011;30180;44.788;10.366;2023-09-19T02:13:20;7.25;;;2.72;;
44476;SDS011;30180;44.788;10.366;2023-09-19T02:15:51;5.47;;;2.30;;
44476;SDS011;30180;44.788;10.366;2023-09-19T02:18:21;5.97;;;2.55;;
44476;SDS011;30180;44.788;10.366;2023-09-19T02:20:49;6.00;;;2.47;;
44476;SDS011;30180;44.788;10.366;2023-09-19T02:23:19;5.15;;;2.70;;
44476;SDS011;30180;44.788;10.366;2023-09-19T02:25:51;7.47;;;2.45;;
44476;SDS011;30180;44.788;10.366;2023-09-19T02:28:20;5.22;;;2.58;;
44476;SDS011;30180;44.788;10.366;2023-09-19T02:30:49;4.72;;;2.78;;
44476;SDS011;30180;44.788;10.366;2023-09-19T02:33:18;7.55;;;3.03;;
44476;SDS011;30180;44.788;10.366;2023-09-19T02:35:48;6.40;;;2.17;;
44476;SDS011;30180;44.788;10.366;2023-09-19T02:38:16;7.57;;;2.50;;
44476;SDS011;30180;44.788;10.366;2023-09-19T02:40:51;6.82;;;2.80;;
44476;SDS011;30180;44.788;10.366;2023-09-19T02:43:21;6.95;;;2.78;;
44476;SDS011;30180;44.788;10.366;2023-09-19T02:45:51;6.45;;;2.67;;
44476;SDS011;30180;44.788;10.366;2023-09-19T02:48:20;5.77;;;2.40;;
44476;SDS011;30180;44.788;10.366;2023-09-19T02:50:51;5.65;;;2.70;;
44476;SDS011;30180;44.788;10.366;2023-09-19T02:53:19;4.93;;;2.33;;
44476;SDS011;30180;44.788;10.366;2023-09-19T02:55:49;7.03;;;2.85;;
44476;SDS011;30180;44.788;10.366;2023-09-19T02:58:21;4.72;;;2.55;;
44476;SDS011;30180;44.788;10.366;2023-09-19T03:03:21;7.07;;;2.60;;
44476;SDS011;30180;44.788;10.366;2023-09-19T03:05:52;7.90;;;2.88;;
44476;SDS011;30180;44.788;10.366;2023-09-19T03:10:49;6.15;;;2.50;;
44476;SDS011;30180;44.788;10.366;2023-09-19T03:13:18;5.90;;;2.42;;
44476;SDS011;30180;44.788;10.366;2023-09-19T03:15:47;5.22;;;2.72;;
44476;SDS011;30180;44.788;10.366;2023-09-19T03:18:17;7.22;;;3.33;;
44476;SDS011;30180;44.788;10.366;2023-09-19T03:20:53;6.30;;;2.55;;
44476;SDS011;30180;44.788;10.366;2023-09-19T03:23:22;4.78;;;2.40;;
44476;SDS011;30180;44.788;10.366;2023-09-19T03:25:52;5.70;;;2.50;;
44476;SDS011;30180;44.788;10.366;2023-09-19T03:28:22;4.68;;;2.28;;
44476;SDS011;30180;44.788;10.366;2023-09-19T03:30:58;6.22;;;2.53;;
44476;SDS011;30180;44.788;10.366;2023-09-19T03:33:28;5.55;;;2.67;;
44476;SDS011;30180;44.788;10.366;2023-09-19T03:35:59;5.37;;;2.40;;
44476;SDS011;30180;44.788;10.366;2023-09-19T03:38:31;5.57;;;2.78;;
44476;SDS011;30180;44.788;10.366;2023-09-19T03:41:01;7.22;;;2.63;;
44476;SDS011;30180;44.788;10.366;2023-09-19T03:43:31;6.13;;;2.63;;
44476;SDS011;30180;44.788;10.366;2023-09-19T03:46:01;6.55;;;2.63;;
44476;SDS011;30180;44.788;10.366;2023-09-19T03:48:31;8.38;;;2.70;;
44476;SDS011;30180;44.788;10.366;2023-09-19T03:51:01;6.68;;;2.65;;
44476;SDS011;30180;44.788;10.366;2023-09-19T03:53:30;5.47;;;2.60;;
44476;SDS011;30180;44.788;10.366;2023-09-19T03:55:58;6.10;;;2.80;;
44476;SDS011;30180;44.788;10.366;2023-09-19T03:58:28;5.13;;;2.35;;
44476;SDS011;30180;44.788;10.366;2023-09-19T04:00:56;6.45;;;2.78;;
44476;SDS011;30180;44.788;10.366;2023-09-19T04:03:26;4.55;;;2.28;;
44476;SDS011;30180;44.788;10.366;2023-09-19T04:06:03;5.13;;;2.78;;
44476;SDS011;30180;44.788;10.366;2023-09-19T04:08:32;6.03;;;2.47;;
44476;SDS011;30180;44.788;10.366;2023-09-19T04:11:00;4.72;;;2.33;;
44476;SDS011;30180;44.788;10.366;2023-09-19T04:13:29;5.38;;;2.60;;
44476;SDS011;30180;44.788;10.366;2023-09-19T04:15:57;4.40;;;2.50;;
44476;SDS011;30180;44.788;10.366;2023-09-19T04:18:26;5.80;;;2.40;;
44476;SDS011;30180;44.788;10.366;2023-09-19T04:20:54;4.03;;;2.38;;
44476;SDS011;30180;44.788;10.366;2023-09-19T04:23:24;5.45;;;2.58;;
44476;SDS011;30180;44.788;10.366;2023-09-19T04:25:53;4.90;;;2.28;;
44476;SDS011;30180;44.788;10.366;2023-09-19T04:28:21;5.50;;;2.55;;
44476;SDS011;30180;44.788;10.366;2023-09-19T04:30:50;5.38;;;2.60;;
44476;SDS011;30180;44.788;10.366;2023-09-19T04:33:19;6.75;;;2.55;;
44476;SDS011;30180;44.788;10.366;2023-09-19T04:35:48;5.15;;;2.53;;
44476;SDS011;30180;44.788;10.366;2023-09-19T04:38:17;5.07;;;2.53;;
44476;SDS011;30180;44.788;10.366;2023-09-19T04:40:48;6.90;;;2.80;;
44476;SDS011;30180;44.788;10.366;2023-09-19T04:43:16;8.68;;;2.75;;
44476;SDS011;30180;44.788;10.366;2023-09-19T04:45:44;7.00;;;2.63;;
44476;SDS011;30180;44.788;10.366;2023-09-19T04:48:13;5.80;;;2.60;;
44476;SDS011;30180;44.788;10.366;2023-09-19T04:50:42;6.95;;;2.63;;
44476;SDS011;30180;44.788;10.366;2023-09-19T04:53:11;4.45;;;2.45;;
44476;SDS011;30180;44.788;10.366;2023-09-19T04:55:40;7.75;;;2.65;;
44476;SDS011;30180;44.788;10.366;2023-09-19T04:58:09;6.30;;;2.50;;
44476;SDS011;30180;44.788;10.366;2023-09-19T05:00:38;6.75;;;2.65;;
44476;SDS011;30180;44.788;10.366;2023-09-19T05:03:06;9.30;;;3.20;;
44476;SDS011;30180;44.788;10.366;2023-09-19T05:05:35;9.57;;;3.40;;
44476;SDS011;30180;44.788;10.366;2023-09-19T05:08:05;10.47;;;3.60;;
44476;SDS011;30180;44.788;10.366;2023-09-19T05:10:35;8.70;;;2.90;;
44476;SDS011;30180;44.788;10.366;2023-09-19T05:13:04;8.45;;;4.00;;
44476;SDS011;30180;44.788;10.366;2023-09-19T05:15:35;6.38;;;3.17;;
44476;SDS011;30180;44.788;10.366;2023-09-19T05:18:03;6.05;;;3.00;;
44476;SDS011;30180;44.788;10.366;2023-09-19T05:20:33;7.20;;;3.15;;
44476;SDS011;30180;44.788;10.366;2023-09-19T05:23:05;5.60;;;3.13;;
44476;SDS011;30180;44.788;10.366;2023-09-19T05:25:39;6.72;;;3.33;;
44476;SDS011;30180;44.788;10.366;2023-09-19T05:30:40;8.88;;;3.58;;
44476;SDS011;30180;44.788;10.366;2023-09-19T05:33:13;6.30;;;3.05;;
44476;SDS011;30180;44.788;10.366;2023-09-19T05:35:42;8.88;;;3.88;;
44476;SDS011;30180;44.788;10.366;2023-09-19T05:38:13;7.60;;;3.67;;
44476;SDS011;30180;44.788;10.366;2023-09-19T05:40:45;7.60;;;3.83;;
44476;SDS011;30180;44.788;10.366;2023-09-19T05:43:14;14.70;;;5.78;;
44476;SDS011;30180;44.788;10.366;2023-09-19T05:45:44;15.90;;;8.63;;
44476;SDS011;30180;44.788;10.366;2023-09-19T05:48:13;17.60;;;9.40;;
44476;SDS011;30180;44.788;10.366;2023-09-19T05:50:43;20.25;;;10.23;;
44476;SDS011;30180;44.788;10.366;2023-09-19T05:53:13;23.55;;;10.98;;
44476;SDS011;30180;44.788;10.366;2023-09-19T05:55:42;21.02;;;10.85;;
44476;SDS011;30180;44.788;10.366;2023-09-19T05:58:11;21.08;;;11.70;;
44476;SDS011;30180;44.788;10.366;2023-09-19T06:00:41;26.15;;;11.15;;
44476;SDS011;30180;44.788;10.366;2023-09-19T06:03:12;21.80;;;11.73;;
44476;SDS011;30180;44.788;10.366;2023-09-19T06:05:41;22.23;;;13.18;;
44476;SDS011;30180;44.788;10.366;2023-09-19T06:08:09;21.90;;;11.35;;
44476;SDS011;30180;44.788;10.366;2023-09-19T06:10:38;20.63;;;10.88;;
44476;SDS011;30180;44.788;10.366;2023-09-19T06:13:07;23.45;;;12.95;;
44476;SDS011;30180;44.788;10.366;2023-09-19T06:15:36;26.70;;;13.30;;
44476;SDS011;30180;44.788;10.366;2023-09-19T06:18:09;23.13;;;13.48;;
44476;SDS011;30180;44.788;10.366;2023-09-19T06:20:43;26.02;;;13.30;;
44476;SDS011;30180;44.788;10.366;2023-09-19T06:23:12;24.20;;;13.93;;
44476;SDS011;30180;44.788;10.366;2023-09-19T06:25:41;24.35;;;13.15;;
44476;SDS011;30180;44.788;10.366;2023-09-19T06:28:10;26.48;;;14.18;;
44476;SDS011;30180;44.788;10.366;2023-09-19T06:30:40;29.13;;;15.73;;
44476;SDS011;30180;44.788;10.366;2023-09-19T06:33:09;25.90;;;15.07;;
44476;SDS011;30180;44.788;10.366;2023-09-19T06:35:43;23.00;;;14.20;;
44476;SDS011;30180;44.788;10.366;2023-09-19T06:38:13;28.30;;;15.20;;
44476;SDS011;30180;44.788;10.366;2023-09-19T06:40:42;29.13;;;16.77;;
44476;SDS011;30180;44.788;10.366;2023-09-19T06:43:10;27.08;;;15.25;;
44476;SDS011;30180;44.788;10.366;2023-09-19T06:45:39;27.63;;;15.30;;
44476;SDS011;30180;44.788;10.366;2023-09-19T06:48:09;26.15;;;15.13;;
44476;SDS011;30180;44.788;10.366;2023-09-19T06:50:39;30.10;;;16.02;;
44476;SDS011;30180;44.788;10.366;2023-09-19T06:53:09;26.15;;;16.35;;
44476;SDS011;30180;44.788;10.366;2023-09-19T06:55:38;29.73;;;15.80;;
44476;SDS011;30180;44.788;10.366;2023-09-19T06:58:06;26.98;;;15.38;;
44476;SDS011;30180;44.788;10.366;2023-09-19T07:00:35;27.65;;;15.75;;
44476;SDS011;30180;44.788;10.366;2023-09-19T07:03:05;28.70;;;16.67;;
44476;SDS011;30180;44.788;10.366;2023-09-19T07:05:38;29.42;;;16.30;;
44476;SDS011;30180;44.788;10.366;2023-09-19T07:10:39;31.53;;;17.63;;
44476;SDS011;30180;44.788;10.366;2023-09-19T07:13:15;25.67;;;15.98;;
44476;SDS011;30180;44.788;10.366;2023-09-19T07:15:44;27.75;;;15.70;;
44476;SDS011;30180;44.788;10.366;2023-09-19T07:18:17;26.42;;;15.93;;
44476;SDS011;30180;44.788;10.366;2023-09-19T07:20:46;24.08;;;13.35;;
44476;SDS011;30180;44.788;10.366;2023-09-19T07:23:18;27.87;;;16.17;;
44476;SDS011;30180;44.788;10.366;2023-09-19T07:25:48;24.25;;;15.43;;
44476;SDS011;30180;44.788;10.366;2023-09-19T07:28:17;25.95;;;15.43;;
44476;SDS011;30180;44.788;10.366;2023-09-19T07:30:46;28.40;;;15.00;;
44476;SDS011;30180;44.788;10.366;2023-09-19T07:33:14;26.77;;;14.85;;
44476;SDS011;30180;44.788;10.366;2023-09-19T07:35:45;25.70;;;16.25;;
44476;SDS011;30180;44.788;10.366;2023-09-19T07:38:14;25.40;;;15.35;;
44476;SDS011;30180;44.788;10.366;2023-09-19T07:40:44;31.67;;;15.70;;
44476;SDS011;30180;44.788;10.366;2023-09-19T07:43:13;25.93;;;15.50;;
44476;SDS011;30180;44.788;10.366;2023-09-19T07:45:41;26.17;;;15.50;;
44476;SDS011;30180;44.788;10.366;2023-09-19T07:48:10;24.92;;;14.43;;
44476;SDS011;30180;44.788;10.366;2023-09-19T07:50:41;26.30;;;14.07;;
44476;SDS011;30180;44.788;10.366;2023-09-19T07:53:11;21.30;;;14.40;;
44476;SDS011;30180;44.788;10.366;2023-09-19T07:55:40;24.08;;;14.30;;
44476;SDS011;30180;44.788;10.366;2023-09-19T07:58:11;23.73;;;13.82;;
44476;SDS011;30180;44.788;10.366;2023-09-19T08:00:39;22.02;;;13.02;;
44476;SDS011;30180;44.788;10.366;2023-09-19T08:03:08;29.98;;;13.68;;
44476;SDS011;30180;44.788;10.366;2023-09-19T08:05:43;22.23;;;13.07;;
44476;SDS011;30180;44.788;10.366;2023-09-19T08:08:12;22.38;;;12.63;;
44476;SDS011;30180;44.788;10.366;2023-09-19T08:10:42;31.35;;;13.60;;
44476;SDS011;30180;44.788;10.366;2023-09-19T08:18:13;22.20;;;12.77;;
44476;SDS011;30180;44.788;10.366;2023-09-19T08:20:42;24.48;;;12.60;;
44476;SDS011;30180;44.788;10.366;2023-09-19T08:23:13;23.08;;;13.02;;
44476;SDS011;30180;44.788;10.366;2023-09-19T08:25:41;24.13;;;13.02;;
44476;SDS011;30180;44.788;10.366;2023-09-19T08:28:10;22.70;;;13.07;;
44476;SDS011;30180;44.788;10.366;2023-09-19T08:30:45;24.45;;;12.55;;
44476;SDS011;30180;44.788;10.366;2023-09-19T08:33:14;28.42;;;12.57;;
44476;SDS011;30180;44.788;10.366;2023-09-19T08:35:42;23.42;;;12.00;;
44476;SDS011;30180;44.788;10.366;2023-09-19T08:38:12;24.83;;;11.88;;
44476;SDS011;30180;44.788;10.366;2023-09-19T08:40:40;26.40;;;11.40;;
44476;SDS011;30180;44.788;10.366;2023-09-19T08:43:10;24.95;;;12.35;;
44476;SDS011;30180;44.788;10.366;2023-09-19T08:45:39;17.30;;;11.63;;
44476;SDS011;30180;44.788;10.366;2023-09-19T08:48:23;21.65;;;11.05;;
44476;SDS011;30180;44.788;10.366;2023-09-19T08:50:56;19.55;;;11.45;;
44476;SDS011;30180;44.788;10.366;2023-09-19T08:53:31;15.05;;;10.57;;
44476;SDS011;30180;44.788;10.366;2023-09-19T08:56:08;20.13;;;11.50;;
44476;SDS011;30180;44.788;10.366;2023-09-19T08:58:41;19.67;;;10.55;;
44476;SDS011;30180;44.788;10.366;2023-09-19T09:01:16;19.35;;;10.07;;
44476;SDS011;30180;44.788;10.366;2023-09-19T09:03:53;18.60;;;10.25;;
44476;SDS011;30180;44.788;10.366;2023-09-19T09:06:23;22.45;;;10.52;;
44476;SDS011;30180;44.788;10.366;2023-09-19T09:08:54;19.73;;;11.32;;
44476;SDS011;30180;44.788;10.366;2023-09-19T09:11:23;17.17;;;10.00;;
44476;SDS011;30180;44.788;10.366;2023-09-19T09:13:54;18.10;;;10.73;;
44476;SDS011;30180;44.788;10.366;2023-09-19T09:16:24;20.05;;;11.82;;
44476;SDS011;30180;44.788;10.366;2023-09-19T09:18:54;21.73;;;12.00;;
44476;SDS011;30180;44.788;10.366;2023-09-19T09:21:23;22.33;;;12.70;;
44476;SDS011;30180;44.788;10.366;2023-09-19T09:23:53;20.77;;;11.40;;
44476;SDS011;30180;44.788;10.366;2023-09-19T09:29:11;20.50;;;11.38;;
44476;SDS011;30180;44.788;10.366;2023-09-19T09:31:45;19.70;;;11.90;;
44476;SDS011;30180;44.788;10.366;2023-09-19T09:34:16;19.60;;;11.18;;
44476;SDS011;30180;44.788;10.366;2023-09-19T09:36:44;18.07;;;9.83;;
44476;SDS011;30180;44.788;10.366;2023-09-19T09:39:29;22.05;;;11.50;;
44476;SDS011;30180;44.788;10.366;2023-09-19T09:41:58;19.00;;;11.65;;
44476;SDS011;30180;44.788;10.366;2023-09-19T09:44:27;19.13;;;10.23;;
44476;SDS011;30180;44.788;10.366;2023-09-19T09:46:58;17.80;;;9.85;;
44476;SDS011;30180;44.788;10.366;2023-09-19T09:49:50;18.23;;;10.57;;
44476;SDS011;30180;44.788;10.366;2023-09-19T09:52:44;17.23;;;9.65;;
44476;SDS011;30180;44.788;10.366;2023-09-19T09:55:13;17.35;;;9.00;;
44476;SDS011;30180;44.788;10.366;2023-09-19T09:57:42;16.35;;;8.48;;
44476;SDS011;30180;44.788;10.366;2023-09-19T10:00:11;16.00;;;9.40;;
44476;SDS011;30180;44.788;10.366;2023-09-19T10:02:47;15.82;;;9.45;;
44476;SDS011;30180;44.788;10.366;2023-09-19T10:05:17;15.32;;;9.63;;
44476;SDS011;30180;44.788;10.366;2023-09-19T10:07:59;16.83;;;9.30;;
44476;SDS011;30180;44.788;10.366;2023-09-19T10:10:40;13.13;;;8.77;;
44476;SDS011;30180;44.788;10.366;2023-09-19T10:13:20;16.02;;;9.30;;
44476;SDS011;30180;44.788;10.366;2023-09-19T10:15:51;14.77;;;9.73;;
44476;SDS011;30180;44.788;10.366;2023-09-19T10:18:22;16.88;;;9.18;;
44476;SDS011;30180;44.788;10.366;2023-09-19T10:20:54;18.58;;;9.88;;
44476;SDS011;30180;44.788;10.366;2023-09-19T10:23:24;16.20;;;9.48;;
44476;SDS011;30180;44.788;10.366;2023-09-19T10:25:57;19.17;;;10.75;;
44476;SDS011;30180;44.788;10.366;2023-09-19T10:28:29;22.20;;;11.48;;
44476;SDS011;30180;44.788;10.366;2023-09-19T10:33:28;17.70;;;10.35;;
44476;SDS011;30180;44.788;10.366;2023-09-19T10:36:08;17.63;;;10.50;;
44476;SDS011;30180;44.788;10.366;2023-09-19T10:38:38;19.92;;;10.48;;
44476;SDS011;30180;44.788;10.366;2023-09-19T10:41:11;19.25;;;10.77;;
44476;SDS011;30180;44.788;10.366;2023-09-19T10:43:43;20.98;;;11.63;;
44476;SDS011;30180;44.788;10.366;2023-09-19T10:46:15;17.90;;;11.05;;
44476;SDS011;30180;44.788;10.366;2023-09-19T10:48:44;20.25;;;10.45;;
44476;SDS011;30180;44.788;10.366;2023-09-19T10:51:17;20.55;;;10.98;;
44476;SDS011;30180;44.788;10.366;2023-09-19T10:53:53;19.00;;;10.90;;
44476;SDS011;30180;44.788;10.366;2023-09-19T10:56:27;18.95;;;11.82;;
44476;SDS011;30180;44.788;10.366;2023-09-19T10:59:07;18.23;;;10.65;;
44476;SDS011;30180;44.788;10.366;2023-09-19T11:01:41;18.52;;;10.82;;
44476;SDS011;30180;44.788;10.366;2023-09-19T11:04:20;20.80;;;10.32;;
44476;SDS011;30180;44.788;10.366;2023-09-19T11:07:02;20.05;;;10.32;;
44476;SDS011;30180;44.788;10.366;2023-09-19T11:18:52;17.60;;;10.43;;
44476;SDS011;30180;44.788;10.366;2023-09-19T11:24:33;17.88;;;10.85;;
44476;SDS011;30180;44.788;10.366;2023-09-19T11:27:11;16.33;;;10.48;;
44476;SDS011;30180;44.788;10.366;2023-09-19T11:29:43;20.08;;;10.55;;
44476;SDS011;30180;44.788;10.366;2023-09-19T11:32:13;19.27;;;10.15;;
44476;SDS011;30180;44.788;10.366;2023-09-19T11:34:47;15.38;;;10.15;;
44476;SDS011;30180;44.788;10.366;2023-09-19T11:40:47;19.83;;;10.43;;
44476;SDS011;30180;44.788;10.366;2023-09-19T11:43:52;17.73;;;10.50;;
44476;SDS011;30180;44.788;10.366;2023-09-19T11:46:52;15.60;;;9.45;;
44476;SDS011;30180;44.788;10.366;2023-09-19T11:49:25;14.02;;;9.15;;
44476;SDS011;30180;44.788;10.366;2023-09-19T11:51:59;16.30;;;9.98;;
44476;SDS011;30180;44.788;10.366;2023-09-19T11:54:32;15.55;;;9.90;;
44476;SDS011;30180;44.788;10.366;2023-09-19T11:57:02;16.27;;;10.00;;
44476;SDS011;30180;44.788;10.366;2023-09-19T11:59:31;16.20;;;9.32;;
44476;SDS011;30180;44.788;10.366;2023-09-19T12:02:00;17.42;;;9.40;;
44476;SDS011;30180;44.788;10.366;2023-09-19T12:04:35;17.30;;;9.55;;
44476;SDS011;30180;44.788;10.366;2023-09-19T12:07:06;15.68;;;9.38;;
44476;SDS011;30180;44.788;10.366;2023-09-19T12:09:42;17.00;;;9.23;;
44476;SDS011;30180;44.788;10.366;2023-09-19T12:12:21;18.45;;;9.13;;
44476;SDS011;30180;44.788;10.366;2023-09-19T12:14:53;18.65;;;9.13;;
44476;SDS011;30180;44.788;10.366;2023-09-19T12:17:34;15.70;;;9.07;;
44476;SDS011;30180;44.788;10.366;2023-09-19T12:20:03;15.48;;;9.13;;
44476;SDS011;30180;44.788;10.366;2023-09-19T12:22:39;19.08;;;9.20;;
44476;SDS011;30180;44.788;10.366;2023-09-19T12:25:10;19.13;;;9.80;;
44476;SDS011;30180;44.788;10.366;2023-09-19T12:27:44;16.02;;;9.48;;
44476;SDS011;30180;44.788;10.366;2023-09-19T12:30:14;14.52;;;9.52;;
44476;SDS011;30180;44.788;10.366;2023-09-19T12:32:47;16.00;;;9.05;;
44476;SDS011;30180;44.788;10.366;2023-09-19T12:35:26;15.75;;;8.95;;
44476;SDS011;30180;44.788;10.366;2023-09-19T12:37:57;13.20;;;8.82;;
44476;SDS011;30180;44.788;10.366;2023-09-19T12:40:25;17.45;;;8.82;;
44476;SDS011;30180;44.788;10.366;2023-09-19T12:42:57;13.38;;;8.95;;
44476;SDS011;30180;44.788;10.366;2023-09-19T12:45:29;13.85;;;8.65;;
44476;SDS011;30180;44.788;10.366;2023-09-19T12:51:04;14.83;;;7.87;;
44476;SDS011;30180;44.788;10.366;2023-09-19T12:53:35;15.43;;;8.75;;
44476;SDS011;30180;44.788;10.366;2023-09-19T12:56:08;16.98;;;8.45;;
44476;SDS011;30180;44.788;10.366;2023-09-19T12:58:50;14.00;;;8.38;;
44476;SDS011;30180;44.788;10.366;2023-09-19T13:01:21;15.30;;;8.77;;
44476;SDS011;30180;44.788;10.366;2023-09-19T13:06:52;12.80;;;7.88;;
44476;SDS011;30180;44.788;10.366;2023-09-19T13:09:22;12.98;;;8.45;;
44476;SDS011;30180;44.788;10.366;2023-09-19T13:11:58;13.52;;;8.02;;
44476;SDS011;30180;44.788;10.366;2023-09-19T13:17:02;15.52;;;8.05;;
44476;SDS011;30180;44.788;10.366;2023-09-19T13:19:37;14.05;;;8.15;;
44476;SDS011;30180;44.788;10.366;2023-09-19T13:25:08;13.95;;;7.35;;
44476;SDS011;30180;44.788;10.366;2023-09-19T13:27:41;12.50;;;7.75;;
44476;SDS011;30180;44.788;10.366;2023-09-19T13:30:12;13.97;;;7.63;;
44476;SDS011;30180;44.788;10.366;2023-09-19T13:32:41;14.68;;;7.95;;
44476;SDS011;30180;44.788;10.366;2023-09-19T13:35:10;13.95;;;7.68;;
44476;SDS011;30180;44.788;10.366;2023-09-19T13:37:39;15.38;;;8.45;;
44476;SDS011;30180;44.788;10.366;2023-09-19T13:40:10;13.27;;;7.70;;
44476;SDS011;30180;44.788;10.366;2023-09-19T13:42:40;14.23;;;8.17;;
44476;SDS011;30180;44.788;10.366;2023-09-19T13:45:09;13.45;;;7.95;;
44476;SDS011;30180;44.788;10.366;2023-09-19T13:47:40;14.25;;;8.00;;
44476;SDS011;30180;44.788;10.366;2023-09-19T13:50:09;12.45;;;7.47;;
44476;SDS011;30180;44.788;10.366;2023-09-19T13:52:38;13.65;;;7.63;;
44476;SDS011;30180;44.788;10.366;2023-09-19T13:55:07;13.18;;;8.07;;
44476;SDS011;30180;44.788;10.366;2023-09-19T13:57:36;11.40;;;7.30;;
44476;SDS011;30180;44.788;10.366;2023-09-19T14:00:05;11.73;;;7.60;;
44476;SDS011;30180;44.788;10.366;2023-09-19T14:02:37;13.15;;;7.72;;
44476;SDS011;30180;44.788;10.366;2023-09-19T14:05:07;12.60;;;7.28;;
44476;SDS011;30180;44.788;10.366;2023-09-19T14:07:37;11.88;;;7.60;;
44476;SDS011;30180;44.788;10.366;2023-09-19T14:10:08;11.55;;;6.93;;
44476;SDS011;30180;44.788;10.366;2023-09-19T14:12:38;12.75;;;6.93;;
44476;SDS011;30180;44.788;10.366;2023-09-19T14:15:07;9.95;;;6.85;;
44476;SDS011;30180;44.788;10.366;2023-09-19T14:17:37;13.35;;;7.68;;
44476;SDS011;30180;44.788;10.366;2023-09-19T14:20:08;11.05;;;7.07;;
44476;SDS011;30180;44.788;10.366;2023-09-19T14:22:37;12.98;;;8.10;;
44476;SDS011;30180;44.788;10.366;2023-09-19T14:25:06;10.25;;;6.90;;
44476;SDS011;30180;44.788;10.366;2023-09-19T14:27:35;11.10;;;7.23;;
44476;SDS011;30180;44.788;10.366;2023-09-19T14:30:04;16.80;;;7.32;;
44476;SDS011;30180;44.788;10.366;2023-09-19T14:32:34;12.77;;;7.17;;
44476;SDS011;30180;44.788;10.366;2023-09-19T14:35:02;10.45;;;6.85;;
44476;SDS011;30180;44.788;10.366;2023-09-19T14:37:33;12.32;;;7.25;;
44476;SDS011;30180;44.788;10.366;2023-09-19T14:40:01;13.43;;;7.17;;
44476;SDS011;30180;44.788;10.366;2023-09-19T14:42:35;12.70;;;6.90;;
44476;SDS011;30180;44.788;10.366;2023-09-19T14:45:10;11.10;;;7.15;;
44476;SDS011;30180;44.788;10.366;2023-09-19T14:47:41;12.02;;;7.10;;
44476;SDS011;30180;44.788;10.366;2023-09-19T14:50:10;11.85;;;6.93;;
44476;SDS011;30180;44.788;10.366;2023-09-19T14:52:40;13.52;;;7.82;;
44476;SDS011;30180;44.788;10.366;2023-09-19T14:55:09;9.40;;;6.80;;
44476;SDS011;30180;44.788;10.366;2023-09-19T14:57:41;11.02;;;6.53;;
44476;SDS011;30180;44.788;10.366;2023-09-19T15:00:12;13.85;;;7.03;;
44476;SDS011;30180;44.788;10.366;2023-09-19T15:02:41;11.60;;;7.00;;
44476;SDS011;30180;44.788;10.366;2023-09-19T15:05:12;11.40;;;7.35;;
44476;SDS011;30180;44.788;10.366;2023-09-19T15:07:47;12.30;;;7.07;;
44476;SDS011;30180;44.788;10.366;2023-09-19T15:10:15;13.60;;;7.30;;
44476;SDS011;30180;44.788;10.366;2023-09-19T15:12:45;12.48;;;6.85;;
44476;SDS011;30180;44.788;10.366;2023-09-19T15:15:13;11.60;;;7.10;;
44476;SDS011;30180;44.788;10.366;2023-09-19T15:17:42;10.95;;;6.97;;
44476;SDS011;30180;44.788;10.366;2023-09-19T15:20:11;10.07;;;7.05;;
44476;SDS011;30180;44.788;10.366;2023-09-19T15:22:40;10.37;;;6.73;;
44476;SDS011;30180;44.788;10.366;2023-09-19T15:25:11;11.60;;;7.40;;
44476;SDS011;30180;44.788;10.366;2023-09-19T15:27:39;11.43;;;6.93;;
44476;SDS011;30180;44.788;10.366;2023-09-19T15:30:08;13.85;;;7.25;;
44476;SDS011;30180;44.788;10.366;2023-09-19T15:32:37;13.80;;;7.20;;
44476;SDS011;30180;44.788;10.366;2023-09-19T15:35:06;12.73;;;6.90;;